Atlantic - Newfoundland: Past 24 Hour Conditions

 

St. John's Int'l Airport

01:30 PM NDT 01 August 2014
This table is a summary of hourly weather conditions for the past 24 hours.
Date / Time
(NDT)
Wind(knots) Conditions Visibility(km) Pressure(kPa) Air tempC) Relative humidity(%) Dew pointC) Humidex
01 August 2014
13:30 WSW 15 gust 20 Mostly Cloudy 24 102.6 26 76 21 34
12:30 SW 12 gust 20 Mostly Cloudy 24 102.7 26 75 21 34
11:30 WSW 14 gust 19 Mostly Cloudy 24 102.7 24 81 21 32
10:30 WSW 14 Mostly Cloudy 24 102.8 24 85 21 32
9:30 WSW 12 gust 19 Mostly Cloudy 24 102.8 24 83 21 33
8:30 W 12 Mostly Cloudy 24 102.7 23 89 21 31
7:30 WSW 11 Mostly Cloudy 19 102.7 21 92 20 29
6:30 W 9 Mostly Cloudy 24 102.7 21 95 20 28
5:30 WSW 11 gust 18 Partly Cloudy 24 102.6 20 96 20 28
4:30 WSW 13 gust 19 Partly Cloudy 24 102.7 21 96 20 29
3:30 WSW 14 Cloudy 24 102.7 21 97 21 29
2:30 WSW 12 gust 19 Mostly Cloudy 24 102.7 21 96 20 28
1:30 WSW 15 Partly Cloudy 24 102.7 21 95 20 28
0:30 W 14 gust 22 Partly Cloudy 24 102.7 21 95 20 28
31 July 2014
23:30 W 15 gust 23 Partly Cloudy 24 102.7 21 95 20 29
22:30 WSW 14 gust 19 Mainly Clear 24 102.7 22 91 20 30
21:30 WSW 11 Mainly Clear 24 102.7 23 85 20 31
20:30 WSW 8 Mainly Sunny 24 102.7 24 83 21 32
19:30 WSW 12 gust 19 Mainly Sunny 24 102.7 25 74 21 33
18:30 WSW 10 gust 16 Mainly Sunny 24 102.7 27 65 20 35
17:30 WSW 14 gust 19 Mainly Sunny 24 102.6 28 61 20 36
16:30 W 13 gust 19 Partly Cloudy 24 102.6 29 62 21 37
15:30 W 13 gust 20 Partly Cloudy 24 102.6 29 60 21 37
14:30 WSW 11 gust 16 Partly Cloudy 24 102.6 29 64 21 37
13:30 W 15 Partly Cloudy 24 102.7 27 70 21 35
 
Map of Atlantic - Newfoundland marine weather areas Southwestern Grand Banks - 44138 Banquereau - 44139 Tail of the Bank - 44140 Nickerson Bank - 44251 Northeast Burgeo Bank - 44255 Blanc-Sablon Airport Cap Whittle Chevery Natashquan Airport Heath Point Miscou Island Grand Étang Ingonish Beach North Mountain St.Paul Island J.A. Douglas McCurdy Sydney Airport Charlottetown Airport East Point North Cape Argentia Bonavista Burgeo Cape Race Corner Brook Daniel's Harbour Englee Ferolle Point La Scie Port aux Basques Rocky Harbour Sagona Island St. Anthony Airport St. John's Int'l Airport St. Lawrence Stephenville Airport Twillingate Winterland Wreckhouse Cartwright Airport Mary's Harbour Grates Cove Pool's Island Marticot Island Long Pond Îles de la Madeleine Airport
Legend: buoyBuoy land stationLand Station